Time;durP1;ratioP1;P1;durP2;ratioP2;P2;SDS_P1;SDS_P2;PMS_P1;PMS_P2;Temp;Humidity;BMP_temperature;BMP_pressure;BME280_temperature;BME280_humidity;BME280_pressure;Samples;Min_cycle;Max_cycle;Signal;HPM_P1;HPM_P2
2024/01/18 00:00:01;;;;;;;42.53;40.35;;;;;;;;;;5032609;28;20034;-64
2024/01/18 00:02:26;;;;;;;42.42;40.20;;;;;;;;;;5032896;28;20033;-64
2024/01/18 00:04:52;;;;;;;45.20;42.85;;;;;;;;;;5030748;28;20567;-64
2024/01/18 00:07:17;;;;;;;47.25;44.65;;;;;;;;;;5031754;28;20129;-65
2024/01/18 00:09:42;;;;;;;43.70;41.35;;;;;;;;;;5030777;28;20037;-64
2024/01/18 00:12:08;;;;;;;39.25;37.15;;;;;;;;;;5029822;28;20037;-64
2024/01/18 00:14:33;;;;;;;37.88;35.78;;;;;;;;;;5032588;28;20021;-64
2024/01/18 00:16:58;;;;;;;37.60;35.63;;;;;;;;;;5029113;28;20160;-65
2024/01/18 00:19:24;;;;;;;39.42;37.35;;;;;;;;;;5033939;28;20467;-64
2024/01/18 00:21:49;;;;;;;37.22;35.17;;;;;;;;;;5030552;28;20053;-65
2024/01/18 00:24:15;;;;;;;37.83;35.83;;;;;;;;;;5034284;28;20478;-64
2024/01/18 00:26:40;;;;;;;40.22;37.83;;;;;;;;;;5031433;28;20026;-65
2024/01/18 00:29:05;;;;;;;37.60;35.60;;;;;;;;;;5032980;28;20056;-65
2024/01/18 00:31:31;;;;;;;39.50;37.10;;;;;;;;;;5033836;28;20034;-65
2024/01/18 00:33:59;;;;;;;36.08;34.22;;;;;;;;;;5031841;28;20471;-63
2024/01/18 00:36:25;;;;;;;36.58;34.67;;;;;;;;;;5031198;28;20037;-65
2024/01/18 00:38:50;;;;;;;40.78;38.58;;;;;;;;;;5033191;28;20529;-63
2024/01/18 00:41:15;;;;;;;44.45;42.08;;;;;;;;;;5033146;28;20048;-63
2024/01/18 00:43:41;;;;;;;42.55;40.25;;;;;;;;;;5033405;28;20025;-63
2024/01/18 00:46:06;;;;;;;38.80;36.60;;;;;;;;;;5034983;28;21356;-64
2024/01/18 00:48:32;;;;;;;39.45;37.30;;;;;;;;;;5033442;28;20384;-63
2024/01/18 00:50:57;;;;;;;39.42;37.22;;;;;;;;;;5035423;28;20419;-64
2024/01/18 00:53:22;;;;;;;36.05;34.15;;;;;;;;;;5031812;28;20044;-64
2024/01/18 00:55:48;;;;;;;39.35;37.15;;;;;;;;;;5030822;28;20060;-63
2024/01/18 00:58:13;;;;;;;39.30;37.10;;;;;;;;;;5029693;28;20029;-65
2024/01/18 01:00:39;;;;;;;38.00;36.00;;;;;;;;;;5032252;28;20082;-65
2024/01/18 01:03:04;;;;;;;40.88;38.70;;;;;;;;;;5031345;28;20122;-65
2024/01/18 01:05:30;;;;;;;39.63;37.33;;;;;;;;;;5031033;28;20072;-65
2024/01/18 01:07:55;;;;;;;38.55;36.45;;;;;;;;;;5032312;28;20029;-64
2024/01/18 01:10:21;;;;;;;38.22;36.22;;;;;;;;;;5030472;28;20067;-56
2024/01/18 01:12:47;;;;;;;39.67;37.38;;;;;;;;;;5033112;28;20033;-55
2024/01/18 01:15:12;;;;;;;40.55;38.35;;;;;;;;;;5033996;28;20034;-54
2024/01/18 01:17:37;;;;;;;38.80;36.70;;;;;;;;;;5030719;28;20049;-55
2024/01/18 01:20:03;;;;;;;42.15;39.92;;;;;;;;;;5030879;28;20061;-54
2024/01/18 01:22:29;;;;;;;39.45;37.38;;;;;;;;;;5028023;28;20124;-53
2024/01/18 01:24:54;;;;;;;38.50;36.47;;;;;;;;;;5028326;28;20061;-57
2024/01/18 01:27:19;;;;;;;39.25;37.22;;;;;;;;;;5029468;28;20466;-63
2024/01/18 01:29:45;;;;;;;39.53;37.42;;;;;;;;;;5029146;28;20457;-64
2024/01/18 01:32:10;;;;;;;43.90;41.60;;;;;;;;;;5029717;28;20095;-63
2024/01/18 01:34:35;;;;;;;43.00;40.78;;;;;;;;;;5028121;28;20034;-64
2024/01/18 01:37:00;;;;;;;42.33;40.13;;;;;;;;;;5027070;28;20491;-63
2024/01/18 01:39:26;;;;;;;43.05;40.75;;;;;;;;;;5032051;28;20041;-64
2024/01/18 01:41:51;;;;;;;40.50;38.38;;;;;;;;;;5030941;28;20034;-62
2024/01/18 01:44:17;;;;;;;39.30;37.30;;;;;;;;;;5028620;28;20072;-63
2024/01/18 01:46:42;;;;;;;45.05;42.75;;;;;;;;;;5032409;28;20548;-62
2024/01/18 01:49:07;;;;;;;50.83;48.22;;;;;;;;;;5027310;28;20036;-64
2024/01/18 01:51:41;;;;;;;49.50;46.95;;;;;;;;;;5030294;28;20041;-64
2024/01/18 01:54:07;;;;;;;44.50;42.20;;;;;;;;;;5030941;28;20375;-63
2024/01/18 01:56:34;;;;;;;34.63;32.80;;;;;;;;;;5030550;28;20033;-64
2024/01/18 01:59:00;;;;;;;35.17;33.17;;;;;;;;;;5021678;28;20043;-64
2024/01/18 02:01:25;;;;;;;34.30;32.45;;;;;;;;;;5033049;28;20116;-64
2024/01/18 02:03:51;;;;;;;34.92;33.03;;;;;;;;;;5029689;28;20041;-64
2024/01/18 02:06:17;;;;;;;36.70;34.60;;;;;;;;;;5032924;28;20498;-53
2024/01/18 02:08:44;;;;;;;36.75;34.78;;;;;;;;;;5035308;28;20037;-49
2024/01/18 02:11:09;;;;;;;36.50;34.60;;;;;;;;;;5030666;28;20076;-50
2024/01/18 02:13:36;;;;;;;43.33;41.08;;;;;;;;;;5029373;28;20048;-63
2024/01/18 02:16:02;;;;;;;47.58;45.08;;;;;;;;;;5028492;28;20067;-62
2024/01/18 02:18:28;;;;;;;45.60;43.28;;;;;;;;;;5028066;28;20065;-62
2024/01/18 02:20:53;;;;;;;43.42;41.13;;;;;;;;;;5032509;28;20037;-62
2024/01/18 02:23:19;;;;;;;43.70;41.47;;;;;;;;;;5029521;28;20116;-52
2024/01/18 02:25:45;;;;;;;45.83;42.05;;;;;;;;;;5028718;28;20149;-50
2024/01/18 02:28:11;;;;;;;40.58;38.33;;;;;;;;;;5026463;28;20475;-54
2024/01/18 02:30:36;;;;;;;41.17;38.97;;;;;;;;;;5030741;28;20040;-51
2024/01/18 02:33:02;;;;;;;42.08;39.83;;;;;;;;;;5026915;28;20040;-55
2024/01/18 02:35:27;;;;;;;45.05;42.70;;;;;;;;;;5031442;28;20427;-56
2024/01/18 02:37:52;;;;;;;42.35;40.17;;;;;;;;;;5033476;28;20360;-54
2024/01/18 02:40:18;;;;;;;42.83;40.53;;;;;;;;;;5028979;28;20051;-54
2024/01/18 02:42:43;;;;;;;38.88;36.83;;;;;;;;;;5035467;28;20128;-56
2024/01/18 02:45:09;;;;;;;40.40;38.20;;;;;;;;;;5030546;28;20029;-55
2024/01/18 02:47:35;;;;;;;40.15;38.05;;;;;;;;;;5028642;28;20177;-55
2024/01/18 02:50:00;;;;;;;38.42;36.42;;;;;;;;;;5029448;28;20641;-56
2024/01/18 02:52:26;;;;;;;39.95;37.88;;;;;;;;;;5029907;28;20187;-52
2024/01/18 02:54:51;;;;;;;37.35;35.25;;;;;;;;;;5028996;28;20037;-54
2024/01/18 02:57:16;;;;;;;36.80;34.90;;;;;;;;;;5031286;28;20687;-51
2024/01/18 02:59:42;;;;;;;35.35;33.45;;;;;;;;;;5029295;28;20090;-55
2024/01/18 03:02:07;;;;;;;34.88;33.08;;;;;;;;;;5033246;28;20145;-53
2024/01/18 03:04:32;;;;;;;36.45;34.45;;;;;;;;;;5031705;28;20094;-54
2024/01/18 03:06:58;;;;;;;36.40;34.40;;;;;;;;;;5034054;28;20029;-57
2024/01/18 03:09:23;;;;;;;35.47;33.67;;;;;;;;;;5030324;28;20037;-63
2024/01/18 03:11:49;;;;;;;38.05;36.05;;;;;;;;;;5031508;28;20033;-63
2024/01/18 03:14:14;;;;;;;37.35;35.40;;;;;;;;;;5032145;28;20482;-64
2024/01/18 03:16:42;;;;;;;39.60;37.53;;;;;;;;;;5031563;28;20230;-63
2024/01/18 03:19:12;;;;;;;37.63;35.67;;;;;;;;;;5030240;28;20029;-65
2024/01/18 03:21:37;;;;;;;34.33;32.53;;;;;;;;;;5031047;28;20033;-63
2024/01/18 03:24:03;;;;;;;32.90;31.20;;;;;;;;;;5030306;28;20068;-64
2024/01/18 03:26:28;;;;;;;33.05;31.25;;;;;;;;;;5032017;28;20056;-63
2024/01/18 03:28:54;;;;;;;33.08;31.38;;;;;;;;;;5031418;28;20142;-64
2024/01/18 03:31:20;;;;;;;33.33;31.52;;;;;;;;;;5027210;28;20033;-64
2024/01/18 03:33:45;;;;;;;33.60;31.85;;;;;;;;;;5029803;28;20029;-63
2024/01/18 03:36:11;;;;;;;33.97;32.17;;;;;;;;;;5031560;28;20041;-63
2024/01/18 03:38:36;;;;;;;33.08;31.38;;;;;;;;;;5031548;28;20331;-63
2024/01/18 03:41:01;;;;;;;34.65;32.45;;;;;;;;;;5026381;28;20061;-63
2024/01/18 03:43:27;;;;;;;32.00;30.30;;;;;;;;;;5027171;28;20116;-62
2024/01/18 03:45:52;;;;;;;32.88;31.17;;;;;;;;;;5030530;28;20438;-62
2024/01/18 03:48:17;;;;;;;32.20;30.50;;;;;;;;;;5029720;28;20033;-62
2024/01/18 03:50:42;;;;;;;34.10;32.30;;;;;;;;;;5029183;28;20041;-62
2024/01/18 03:53:08;;;;;;;34.65;32.80;;;;;;;;;;5032528;28;20028;-64
2024/01/18 03:55:33;;;;;;;34.97;33.17;;;;;;;;;;5035629;28;20132;-64
2024/01/18 03:57:58;;;;;;;34.20;32.40;;;;;;;;;;5034188;28;20524;-64
2024/01/18 04:00:24;;;;;;;34.40;32.60;;;;;;;;;;5033950;28;20037;-64
2024/01/18 04:02:49;;;;;;;34.00;32.15;;;;;;;;;;5034750;28;20037;-63
2024/01/18 04:05:14;;;;;;;33.10;31.35;;;;;;;;;;5034342;28;20044;-64
2024/01/18 04:07:40;;;;;;;33.08;31.38;;;;;;;;;;5035281;28;20501;-64
2024/01/18 04:10:07;;;;;;;34.13;32.33;;;;;;;;;;5031942;28;20132;-64
2024/01/18 04:12:34;;;;;;;34.63;32.72;;;;;;;;;;5030584;28;20459;-63
2024/01/18 04:15:00;;;;;;;33.28;31.48;;;;;;;;;;5033391;28;20112;-63
2024/01/18 04:17:25;;;;;;;34.33;32.53;;;;;;;;;;5033291;28;20117;-63
2024/01/18 04:19:51;;;;;;;33.83;32.08;;;;;;;;;;5035712;28;20044;-64
2024/01/18 04:22:16;;;;;;;35.22;33.42;;;;;;;;;;5032234;28;20044;-63
2024/01/18 04:24:42;;;;;;;34.10;32.30;;;;;;;;;;5034304;28;20035;-63
2024/01/18 04:27:07;;;;;;;34.13;32.35;;;;;;;;;;5032822;28;20558;-62
2024/01/18 04:29:32;;;;;;;32.88;31.08;;;;;;;;;;5033420;28;20392;-64
2024/01/18 04:31:58;;;;;;;33.78;31.98;;;;;;;;;;5029809;28;20064;-63
2024/01/18 04:34:23;;;;;;;32.83;31.13;;;;;;;;;;5033423;28;20057;-62
2024/01/18 04:36:48;;;;;;;32.25;30.55;;;;;;;;;;5034531;28;20035;-62
2024/01/18 04:39:14;;;;;;;32.72;31.02;;;;;;;;;;5030046;28;20029;-63
2024/01/18 04:41:40;;;;;;;32.70;31.00;;;;;;;;;;5034922;28;20106;-63
2024/01/18 04:44:05;;;;;;;33.97;32.08;;;;;;;;;;5032521;28;20033;-62
2024/01/18 04:46:31;;;;;;;33.75;31.98;;;;;;;;;;5029664;28;20411;-62
2024/01/18 04:48:56;;;;;;;34.40;32.60;;;;;;;;;;5032105;28;20035;-61
2024/01/18 04:51:22;;;;;;;35.15;33.08;;;;;;;;;;5033830;28;20047;-62
2024/01/18 04:53:47;;;;;;;35.60;33.60;;;;;;;;;;5034892;28;20029;-62
2024/01/18 04:56:12;;;;;;;36.38;34.38;;;;;;;;;;5028967;28;20434;-61
2024/01/18 04:58:38;;;;;;;36.75;34.85;;;;;;;;;;5030403;28;20017;-61
2024/01/18 05:01:03;;;;;;;37.70;35.70;;;;;;;;;;5031005;28;20040;-62
2024/01/18 05:03:28;;;;;;;34.45;32.65;;;;;;;;;;5034675;28;20132;-61
2024/01/18 05:05:56;;;;;;;35.65;33.83;;;;;;;;;;5029979;28;20049;-61
2024/01/18 05:08:22;;;;;;;34.72;32.92;;;;;;;;;;5026798;28;20033;-63
2024/01/18 05:10:48;;;;;;;34.40;32.60;;;;;;;;;;5030997;28;20045;-62
2024/01/18 05:13:13;;;;;;;34.72;32.88;;;;;;;;;;5033685;28;20530;-62
2024/01/18 05:15:38;;;;;;;35.17;33.25;;;;;;;;;;5031418;28;20107;-62
2024/01/18 05:18:06;;;;;;;33.65;31.80;;;;;;;;;;5031748;28;20073;-62
2024/01/18 05:20:32;;;;;;;32.67;30.88;;;;;;;;;;5031396;28;20106;-62
2024/01/18 05:22:57;;;;;;;34.00;32.20;;;;;;;;;;5033437;28;20041;-53
2024/01/18 05:25:23;;;;;;;33.35;31.55;;;;;;;;;;5028317;28;20037;-54
2024/01/18 05:27:49;;;;;;;35.53;33.63;;;;;;;;;;5031272;28;20355;-53
2024/01/18 05:30:14;;;;;;;34.67;32.88;;;;;;;;;;5032151;28;20029;-50
2024/01/18 05:32:40;;;;;;;31.55;29.85;;;;;;;;;;5028821;28;20037;-51
2024/01/18 05:35:05;;;;;;;32.10;30.40;;;;;;;;;;5030306;28;20502;-53
2024/01/18 05:37:31;;;;;;;36.72;34.83;;;;;;;;;;5032726;28;20060;-54
2024/01/18 05:39:56;;;;;;;34.10;32.30;;;;;;;;;;5027368;28;20460;-54
2024/01/18 05:42:27;;;;;;;33.38;31.52;;;;;;;;;;5030068;28;20083;-55
2024/01/18 05:44:52;;;;;;;37.95;35.97;;;;;;;;;;5029177;28;20033;-52
2024/01/18 05:47:18;;;;;;;38.88;36.88;;;;;;;;;;5028522;28;20041;-53
2024/01/18 05:49:43;;;;;;;39.08;36.97;;;;;;;;;;5028383;28;20454;-54
2024/01/18 05:52:09;;;;;;;40.25;38.15;;;;;;;;;;5027101;28;20353;-53
2024/01/18 05:54:34;;;;;;;35.00;33.17;;;;;;;;;;5029713;28;20470;-55
2024/01/18 05:57:01;;;;;;;40.40;38.30;;;;;;;;;;5032594;28;20060;-53
2024/01/18 05:59:27;;;;;;;33.15;31.35;;;;;;;;;;5029876;28;20033;-51
2024/01/18 06:01:53;;;;;;;37.20;35.20;;;;;;;;;;5026325;28;20141;-55
2024/01/18 06:04:18;;;;;;;32.67;30.98;;;;;;;;;;5027016;28;20434;-54
2024/01/18 06:06:44;;;;;;;40.10;38.00;;;;;;;;;;5030061;28;20047;-49
2024/01/18 06:09:09;;;;;;;34.38;32.58;;;;;;;;;;5027428;28;20700;-51
2024/01/18 06:11:35;;;;;;;34.55;32.65;;;;;;;;;;5030280;28;20116;-49
2024/01/18 06:14:00;;;;;;;39.92;37.83;;;;;;;;;;5028471;28;20033;-52
2024/01/18 06:16:26;;;;;;;36.03;34.13;;;;;;;;;;5026518;28;20068;-50
2024/01/18 06:18:52;;;;;;;38.45;36.40;;;;;;;;;;5028874;28;20037;-52
2024/01/18 06:21:17;;;;;;;35.47;33.67;;;;;;;;;;5029730;28;20530;-51
2024/01/18 06:23:43;;;;;;;34.67;32.88;;;;;;;;;;5029569;28;20653;-50
2024/01/18 06:26:10;;;;;;;38.72;36.65;;;;;;;;;;5028787;28;20526;-50
2024/01/18 06:28:37;;;;;;;36.47;34.58;;;;;;;;;;5028814;28;20038;-49
2024/01/18 06:31:03;;;;;;;38.42;36.33;;;;;;;;;;5028889;28;20037;-53
2024/01/18 06:33:28;;;;;;;39.05;37.05;;;;;;;;;;5030089;28;20026;-54
2024/01/18 06:35:53;;;;;;;41.50;39.22;;;;;;;;;;5030135;28;20033;-51
2024/01/18 06:38:22;;;;;;;38.03;36.05;;;;;;;;;;5029517;28;20035;-53
2024/01/18 06:40:48;;;;;;;39.10;37.10;;;;;;;;;;5031340;28;20041;-54
2024/01/18 06:43:14;;;;;;;41.70;39.60;;;;;;;;;;5032801;28;20041;-54
2024/01/18 06:45:39;;;;;;;38.42;36.42;;;;;;;;;;5023532;28;20367;-62
2024/01/18 06:48:05;;;;;;;37.50;35.53;;;;;;;;;;5031757;28;20033;-62
2024/01/18 06:50:31;;;;;;;38.33;36.22;;;;;;;;;;5028772;28;20029;-61
2024/01/18 06:52:57;;;;;;;37.03;35.10;;;;;;;;;;5030928;28;20068;-61
2024/01/18 06:55:23;;;;;;;35.17;33.38;;;;;;;;;;5027046;28;20116;-61
2024/01/18 06:57:48;;;;;;;35.30;33.40;;;;;;;;;;5026657;28;20090;-61
2024/01/18 07:00:16;;;;;;;34.50;32.63;;;;;;;;;;5028512;28;20576;-61
2024/01/18 07:02:41;;;;;;;33.67;31.88;;;;;;;;;;5026848;28;20116;-61
2024/01/18 07:05:07;;;;;;;35.33;33.50;;;;;;;;;;5028931;28;20037;-61
2024/01/18 07:07:32;;;;;;;32.97;31.27;;;;;;;;;;5028345;28;20037;-62
2024/01/18 07:09:58;;;;;;;33.80;32.03;;;;;;;;;;5027975;28;20048;-61
2024/01/18 07:12:24;;;;;;;35.60;33.70;;;;;;;;;;5027945;28;20047;-61
2024/01/18 07:14:50;;;;;;;34.72;32.90;;;;;;;;;;5028651;28;20114;-62
2024/01/18 07:17:15;;;;;;;34.20;32.40;;;;;;;;;;5032443;28;20049;-61
2024/01/18 07:19:41;;;;;;;34.47;32.67;;;;;;;;;;5030514;28;20033;-61
2024/01/18 07:22:06;;;;;;;35.15;33.35;;;;;;;;;;5034731;28;20068;-61
2024/01/18 07:24:32;;;;;;;32.88;31.00;;;;;;;;;;5032647;28;20033;-61
2024/01/18 07:26:57;;;;;;;34.38;32.47;;;;;;;;;;5029426;28;20038;-61
2024/01/18 07:29:23;;;;;;;35.08;33.17;;;;;;;;;;5031454;28;20033;-61
2024/01/18 07:31:49;;;;;;;32.95;31.25;;;;;;;;;;5031792;28;20029;-61
2024/01/18 07:34:15;;;;;;;34.13;32.25;;;;;;;;;;5034703;28;20026;-61
2024/01/18 07:36:41;;;;;;;34.80;33.00;;;;;;;;;;5032130;28;20044;-61
2024/01/18 07:39:06;;;;;;;33.35;31.55;;;;;;;;;;5036216;28;20032;-61
2024/01/18 07:41:31;;;;;;;33.35;31.52;;;;;;;;;;5034855;28;20031;-61
2024/01/18 07:43:57;;;;;;;36.20;34.30;;;;;;;;;;5034609;28;20041;-61
2024/01/18 07:46:22;;;;;;;32.20;30.50;;;;;;;;;;5032109;28;20032;-62
2024/01/18 07:48:47;;;;;;;33.58;31.77;;;;;;;;;;5030688;28;20026;-62
2024/01/18 07:51:13;;;;;;;37.50;35.30;;;;;;;;;;5034883;28;20120;-53
2024/01/18 07:53:39;;;;;;;36.10;34.10;;;;;;;;;;5032178;28;20034;-55
2024/01/18 07:56:04;;;;;;;35.40;33.53;;;;;;;;;;5036329;28;20372;-51
2024/01/18 07:58:29;;;;;;;39.35;37.33;;;;;;;;;;5034581;28;20128;-54
2024/01/18 08:00:55;;;;;;;33.05;31.35;;;;;;;;;;5033227;28;20040;-53
2024/01/18 08:03:20;;;;;;;36.03;34.13;;;;;;;;;;5034912;28;20034;-54
2024/01/18 08:05:45;;;;;;;36.55;34.60;;;;;;;;;;5035638;28;20033;-54
2024/01/18 08:08:11;;;;;;;35.15;33.22;;;;;;;;;;5034163;28;20057;-54
2024/01/18 08:10:36;;;;;;;35.70;33.80;;;;;;;;;;5030791;28;20465;-54
2024/01/18 08:13:02;;;;;;;35.00;32.92;;;;;;;;;;5038110;28;20668;-53
2024/01/18 08:15:27;;;;;;;35.10;33.20;;;;;;;;;;5030234;28;20075;-54
2024/01/18 08:17:53;;;;;;;36.28;34.38;;;;;;;;;;5031141;28;20041;-52
2024/01/18 08:20:19;;;;;;;36.85;34.85;;;;;;;;;;5032446;28;20048;-54
2024/01/18 08:22:44;;;;;;;37.08;34.85;;;;;;;;;;5030062;28;20037;-55
2024/01/18 08:25:10;;;;;;;35.65;33.75;;;;;;;;;;5029268;28;20530;-55
2024/01/18 08:27:40;;;;;;;35.30;33.28;;;;;;;;;;5028732;28;20374;-56
2024/01/18 08:30:06;;;;;;;35.30;33.40;;;;;;;;;;5025841;28;20071;-54
2024/01/18 08:32:34;;;;;;;37.08;35.08;;;;;;;;;;5029380;28;20675;-61
2024/01/18 08:35:06;;;;;;;37.42;35.42;;;;;;;;;;5033302;28;20410;-61
2024/01/18 08:37:33;;;;;;;38.55;36.55;;;;;;;;;;5027607;28;20122;-61
2024/01/18 08:39:59;;;;;;;37.20;35.25;;;;;;;;;;5031930;28;20045;-61
2024/01/18 08:42:24;;;;;;;33.97;32.17;;;;;;;;;;5028804;28;20044;-61
2024/01/18 08:44:50;;;;;;;33.78;31.98;;;;;;;;;;5030617;28;20036;-61
2024/01/18 08:47:16;;;;;;;35.55;33.67;;;;;;;;;;5028213;28;20056;-61
2024/01/18 08:49:41;;;;;;;34.60;32.80;;;;;;;;;;5031848;28;20043;-61
2024/01/18 08:52:07;;;;;;;35.72;33.83;;;;;;;;;;5031294;28;20033;-61
2024/01/18 08:54:32;;;;;;;34.30;31.80;;;;;;;;;;5030215;28;20483;-60
2024/01/18 08:56:58;;;;;;;34.13;32.33;;;;;;;;;;5032382;28;20033;-60
2024/01/18 08:59:23;;;;;;;34.22;32.42;;;;;;;;;;5030648;28;20030;-60
2024/01/18 09:01:50;;;;;;;34.55;32.70;;;;;;;;;;5030440;28;20051;-60
2024/01/18 09:04:16;;;;;;;36.15;34.15;;;;;;;;;;5030721;28;20136;-60
2024/01/18 09:06:42;;;;;;;34.70;32.80;;;;;;;;;;5030883;28;20469;-60
2024/01/18 09:09:11;;;;;;;34.15;32.28;;;;;;;;;;5031568;28;20168;-60
2024/01/18 09:11:37;;;;;;;34.90;33.10;;;;;;;;;;5029311;28;20068;-61
2024/01/18 09:14:03;;;;;;;35.78;33.88;;;;;;;;;;5032074;28;20274;-61
2024/01/18 09:16:30;;;;;;;33.55;31.75;;;;;;;;;;5030969;28;20029;-61
2024/01/18 09:18:56;;;;;;;34.53;32.70;;;;;;;;;;5028939;28;20046;-60
2024/01/18 09:21:21;;;;;;;36.33;34.35;;;;;;;;;;5032024;28;20021;-61
2024/01/18 09:23:46;;;;;;;35.47;33.58;;;;;;;;;;5030925;28;20344;-61
2024/01/18 09:26:12;;;;;;;35.17;33.20;;;;;;;;;;5031950;28;20043;-61
2024/01/18 09:28:37;;;;;;;35.90;34.05;;;;;;;;;;5034438;28;20037;-61
2024/01/18 09:31:02;;;;;;;35.97;34.08;;;;;;;;;;5029052;28;20902;-60
2024/01/18 09:33:28;;;;;;;35.63;33.70;;;;;;;;;;5031369;28;20497;-60
2024/01/18 09:35:54;;;;;;;35.28;33.17;;;;;;;;;;5028276;28;20109;-60
2024/01/18 09:38:19;;;;;;;36.35;34.35;;;;;;;;;;5033191;28;20033;-60
2024/01/18 09:40:46;;;;;;;35.00;32.80;;;;;;;;;;5030673;28;20039;-61
2024/01/18 09:43:15;;;;;;;34.38;32.58;;;;;;;;;;5030301;28;20072;-61
2024/01/18 09:45:48;;;;;;;33.92;32.05;;;;;;;;;;5029436;28;20067;-61
2024/01/18 09:48:14;;;;;;;34.97;32.97;;;;;;;;;;5031869;28;20132;-61
2024/01/18 09:50:44;;;;;;;35.75;33.80;;;;;;;;;;5029027;28;20091;-60
2024/01/18 09:53:09;;;;;;;34.33;32.53;;;;;;;;;;5032162;28;20450;-60
2024/01/18 09:55:34;;;;;;;35.70;33.60;;;;;;;;;;5030098;28;20057;-60
2024/01/18 09:58:02;;;;;;;37.17;35.00;;;;;;;;;;5029995;28;20033;-60
2024/01/18 10:00:31;;;;;;;36.55;34.65;;;;;;;;;;5034078;28;20107;-60
2024/01/18 10:02:57;;;;;;;37.00;35.05;;;;;;;;;;5025973;28;20371;-60
2024/01/18 10:05:25;;;;;;;36.72;34.72;;;;;;;;;;5028394;28;20659;-60
2024/01/18 10:07:51;;;;;;;37.50;35.35;;;;;;;;;;5029116;28;20037;-52
2024/01/18 10:10:18;;;;;;;36.72;34.80;;;;;;;;;;5029380;28;20044;-50
2024/01/18 10:12:47;;;;;;;37.03;35.08;;;;;;;;;;5023864;28;20037;-54
2024/01/18 10:15:28;;;;;;;36.00;34.00;;;;;;;;;;5026915;28;20087;-60
2024/01/18 10:17:54;;;;;;;38.00;35.92;;;;;;;;;;5029424;28;20036;-60
2024/01/18 10:20:19;;;;;;;34.90;33.00;;;;;;;;;;5029462;28;20037;-60
2024/01/18 10:22:45;;;;;;;38.17;36.08;;;;;;;;;;5030220;28;20061;-60
2024/01/18 10:25:12;;;;;;;36.58;34.67;;;;;;;;;;5029367;28;20037;-60
2024/01/18 10:27:41;;;;;;;36.80;34.80;;;;;;;;;;5031212;28;20029;-60
2024/01/18 10:30:09;;;;;;;37.80;35.58;;;;;;;;;;5031795;28;20043;-61
2024/01/18 10:32:37;;;;;;;39.13;37.13;;;;;;;;;;5028900;28;20028;-61
2024/01/18 10:35:02;;;;;;;39.75;37.55;;;;;;;;;;5030508;28;20053;-61
2024/01/18 10:37:27;;;;;;;41.42;39.15;;;;;;;;;;5028355;28;20126;-61
2024/01/18 10:39:53;;;;;;;40.30;38.20;;;;;;;;;;5033608;28;20037;-61
2024/01/18 10:42:18;;;;;;;38.47;36.38;;;;;;;;;;5029599;28;20457;-61
2024/01/18 10:44:45;;;;;;;38.95;36.70;;;;;;;;;;5030731;28;20033;-61
2024/01/18 10:47:12;;;;;;;35.97;33.88;;;;;;;;;;5032074;28;20107;-61
2024/01/18 10:49:40;;;;;;;33.25;31.45;;;;;;;;;;5034040;28;20100;-62
2024/01/18 10:52:07;;;;;;;33.10;31.23;;;;;;;;;;5030827;28;20060;-55
2024/01/18 10:54:33;;;;;;;32.22;30.45;;;;;;;;;;5029591;28;20571;-53
2024/01/18 10:57:01;;;;;;;31.98;30.23;;;;;;;;;;5029540;28;20636;-52
2024/01/18 10:59:29;;;;;;;32.80;31.00;;;;;;;;;;5030683;28;20051;-60
2024/01/18 11:01:55;;;;;;;34.08;32.28;;;;;;;;;;5028276;28;20033;-61
2024/01/18 11:04:20;;;;;;;34.80;32.90;;;;;;;;;;5035230;28;20040;-61
2024/01/18 11:06:47;;;;;;;34.53;32.53;;;;;;;;;;5033832;28;20025;-60
2024/01/18 11:09:13;;;;;;;34.30;32.40;;;;;;;;;;5033429;28;20065;-52
2024/01/18 11:11:39;;;;;;;38.67;36.53;;;;;;;;;;5033875;28;20057;-60
2024/01/18 11:14:05;;;;;;;36.50;34.60;;;;;;;;;;5032431;28;20029;-60
2024/01/18 11:16:31;;;;;;;35.67;33.45;;;;;;;;;;5036339;28;20543;-52
2024/01/18 11:19:02;;;;;;;39.67;37.30;;;;;;;;;;5035024;28;20072;-60
2024/01/18 11:21:40;;;;;;;36.83;34.83;;;;;;;;;;5034216;28;20047;-53
2024/01/18 11:24:07;;;;;;;34.47;32.67;;;;;;;;;;5031914;28;20033;-60
2024/01/18 11:26:33;;;;;;;35.88;33.72;;;;;;;;;;5035581;28;20037;-56
2024/01/18 11:29:25;;;;;;;37.33;35.15;;;;;;;;;;5035296;28;20406;-53
2024/01/18 11:31:51;;;;;;;35.70;33.70;;;;;;;;;;5030153;28;20116;-54
2024/01/18 11:34:37;;;;;;;38.47;36.47;;;;;;;;;;5032309;28;20116;-60
2024/01/18 11:37:13;;;;;;;39.00;36.97;;;;;;;;;;5033885;28;20554;-60
2024/01/18 11:39:47;;;;;;;42.55;40.05;;;;;;;;;;5034482;28;20037;-60
2024/01/18 11:42:30;;;;;;;46.28;43.90;;;;;;;;;;5033911;28;20037;-61
2024/01/18 11:44:55;;;;;;;46.88;44.47;;;;;;;;;;5029797;28;20129;-61
2024/01/18 11:47:22;;;;;;;51.33;48.58;;;;;;;;;;5032349;28;20645;-61
2024/01/18 11:49:48;;;;;;;54.08;51.33;;;;;;;;;;5032268;28;20363;-61
2024/01/18 11:52:15;;;;;;;57.50;54.53;;;;;;;;;;5032836;28;20034;-60
2024/01/18 11:54:42;;;;;;;61.10;58.00;;;;;;;;;;5030359;28;20033;-61
2024/01/18 11:57:14;;;;;;;69.10;65.55;;;;;;;;;;5033197;28;20033;-61
2024/01/18 11:59:45;;;;;;;70.93;67.28;;;;;;;;;;5033470;28;20437;-62
2024/01/18 12:02:11;;;;;;;75.35;71.53;;;;;;;;;;5032611;28;20048;-61
2024/01/18 12:04:36;;;;;;;68.28;64.85;;;;;;;;;;5034778;28;20025;-61
2024/01/18 12:07:02;;;;;;;79.68;75.50;;;;;;;;;;5029587;28;20138;-64
2024/01/18 12:09:30;;;;;;;80.53;76.18;;;;;;;;;;5032457;28;20040;-62
2024/01/18 12:11:57;;;;;;;80.68;76.60;;;;;;;;;;5028198;28;20033;-61
2024/01/18 12:14:22;;;;;;;75.07;71.25;;;;;;;;;;5032685;28;20037;-62
2024/01/18 12:16:48;;;;;;;77.22;73.35;;;;;;;;;;5031806;28;20414;-62
2024/01/18 12:19:29;;;;;;;81.18;77.00;;;;;;;;;;5031446;28;20390;-62
2024/01/18 12:21:55;;;;;;;77.20;73.30;;;;;;;;;;5029982;28;20029;-62
2024/01/18 12:24:20;;;;;;;83.10;78.95;;;;;;;;;;5034727;28;20036;-61
2024/01/18 12:26:46;;;;;;;76.82;72.95;;;;;;;;;;5031843;28;20028;-61
2024/01/18 12:29:12;;;;;;;79.43;75.28;;;;;;;;;;5033102;28;20037;-61
2024/01/18 12:31:37;;;;;;;72.43;68.75;;;;;;;;;;5032749;28;20059;-61
2024/01/18 12:34:03;;;;;;;74.97;71.20;;;;;;;;;;5032430;28;20030;-62
2024/01/18 12:36:28;;;;;;;76.10;72.25;;;;;;;;;;5030572;28;20029;-61
2024/01/18 12:38:54;;;;;;;67.53;64.03;;;;;;;;;;5033404;28;20417;-61
2024/01/18 12:41:20;;;;;;;65.20;61.92;;;;;;;;;;5033326;28;20071;-61
2024/01/18 12:43:46;;;;;;;72.65;68.97;;;;;;;;;;5032634;28;20052;-59
2024/01/18 12:46:11;;;;;;;72.22;68.63;;;;;;;;;;5033667;28;20455;-60
2024/01/18 12:48:37;;;;;;;73.35;69.47;;;;;;;;;;5035989;28;20083;-60
2024/01/18 12:51:03;;;;;;;68.43;64.95;;;;;;;;;;5035266;28;21178;-60
2024/01/18 12:53:28;;;;;;;71.50;67.85;;;;;;;;;;5033081;28;20057;-61
2024/01/18 12:55:54;;;;;;;75.15;70.85;;;;;;;;;;5029954;28;20465;-60
2024/01/18 12:58:22;;;;;;;73.50;69.78;;;;;;;;;;5037230;28;20029;-59
2024/01/18 13:00:53;;;;;;;71.85;68.25;;;;;;;;;;5032571;28;20024;-61
2024/01/18 13:03:20;;;;;;;;;;;;;;;;;;5033101;28;20056;-60
2024/01/18 13:05:47;;;;;;;58.85;55.83;;;;;;;;;;5036252;28;19935;-59
2024/01/18 13:08:15;;;;;;;64.03;60.83;;;;;;;;;;5033561;28;20033;-59
2024/01/18 13:10:41;;;;;;;76.97;73.05;;;;;;;;;;5034331;28;20111;-60
2024/01/18 13:13:08;;;;;;;87.30;82.78;;;;;;;;;;5034672;28;20041;-60
2024/01/18 13:15:34;;;;;;;84.15;79.82;;;;;;;;;;5031525;28;20034;-60
2024/01/18 13:18:07;;;;;;;80.70;76.63;;;;;;;;;;5030635;28;20025;-60
2024/01/18 13:20:32;;;;;;;78.72;74.75;;;;;;;;;;5032182;28;20064;-59
2024/01/18 13:22:57;;;;;;;81.70;77.55;;;;;;;;;;5035464;28;20040;-59
2024/01/18 13:25:23;;;;;;;71.25;67.60;;;;;;;;;;5033870;28;20033;-59
2024/01/18 13:27:48;;;;;;;70.88;67.28;;;;;;;;;;5033886;28;20082;-58
2024/01/18 13:30:14;;;;;;;69.05;65.60;;;;;;;;;;5035450;28;20105;-60
2024/01/18 13:32:39;;;;;;;62.03;58.92;;;;;;;;;;5030234;28;20103;-59
2024/01/18 13:35:05;;;;;;;69.28;65.78;;;;;;;;;;5029753;28;20037;-59
2024/01/18 13:37:30;;;;;;;65.88;62.47;;;;;;;;;;5029901;28;20068;-59
2024/01/18 13:39:56;;;;;;;63.83;60.63;;;;;;;;;;5027809;28;20040;-53
2024/01/18 13:42:21;;;;;;;63.47;60.28;;;;;;;;;;5032329;28;20546;-59
2024/01/18 13:44:46;;;;;;;63.53;60.33;;;;;;;;;;5031612;28;20037;-53
2024/01/18 13:47:11;;;;;;;62.88;59.67;;;;;;;;;;5030606;28;20037;-51
2024/01/18 13:49:38;;;;;;;65.78;62.47;;;;;;;;;;5031217;28;20064;-49
2024/01/18 13:52:04;;;;;;;71.28;67.65;;;;;;;;;;5026860;28;20025;-52
2024/01/18 13:54:29;;;;;;;57.55;54.65;;;;;;;;;;5031879;28;20045;-53
2024/01/18 13:56:55;;;;;;;59.58;56.33;;;;;;;;;;5026129;28;20123;-53
2024/01/18 13:59:20;;;;;;;67.55;64.18;;;;;;;;;;5029634;28;20041;-55
2024/01/18 14:01:46;;;;;;;68.13;64.65;;;;;;;;;;5027654;28;20134;-51
2024/01/18 14:04:11;;;;;;;67.05;63.63;;;;;;;;;;5028613;28;20049;-51
2024/01/18 14:06:38;;;;;;;69.38;65.78;;;;;;;;;;5034022;28;20029;-51
2024/01/18 14:09:03;;;;;;;68.25;64.70;;;;;;;;;;5032851;28;20124;-53
2024/01/18 14:11:29;;;;;;;67.53;64.15;;;;;;;;;;5033709;28;20108;-52